sensor_id;sensor_type;location;lat;lon;timestamp;temperature;humidity
20803;DHT22;10562;-33.856;151.182;2023-05-07T00:00:25;12.10;99.90
20803;DHT22;10562;-33.856;151.182;2023-05-07T00:02:56;11.90;99.90
20803;DHT22;10562;-33.856;151.182;2023-05-07T00:05:27;11.90;99.90
20803;DHT22;10562;-33.856;151.182;2023-05-07T00:07:58;11.90;99.90
20803;DHT22;10562;-33.856;151.182;2023-05-07T00:10:29;11.80;99.90
20803;DHT22;10562;-33.856;151.182;2023-05-07T00:13:02;11.70;99.90
20803;DHT22;10562;-33.856;151.182;2023-05-07T00:15:32;11.70;99.90
20803;DHT22;10562;-33.856;151.182;2023-05-07T00:18:03;11.80;99.90
20803;DHT22;10562;-33.856;151.182;2023-05-07T00:20:34;11.80;99.90
20803;DHT22;10562;-33.856;151.182;2023-05-07T00:23:05;11.70;99.90
20803;DHT22;10562;-33.856;151.182;2023-05-07T00:25:36;11.80;99.90
20803;DHT22;10562;-33.856;151.182;2023-05-07T00:28:08;11.70;99.90
20803;DHT22;10562;-33.856;151.182;2023-05-07T00:30:39;11.70;99.90
20803;DHT22;10562;-33.856;151.182;2023-05-07T00:33:10;11.60;99.90
20803;DHT22;10562;-33.856;151.182;2023-05-07T00:35:41;11.50;99.90
20803;DHT22;10562;-33.856;151.182;2023-05-07T00:38:12;11.60;99.90
20803;DHT22;10562;-33.856;151.182;2023-05-07T00:40:44;11.50;99.90
20803;DHT22;10562;-33.856;151.182;2023-05-07T00:43:17;11.50;99.90
20803;DHT22;10562;-33.856;151.182;2023-05-07T00:45:47;11.60;99.90
20803;DHT22;10562;-33.856;151.182;2023-05-07T00:48:18;11.50;99.90
20803;DHT22;10562;-33.856;151.182;2023-05-07T00:50:49;11.60;99.90
20803;DHT22;10562;-33.856;151.182;2023-05-07T00:53:21;11.70;99.90
20803;DHT22;10562;-33.856;151.182;2023-05-07T00:55:52;11.80;99.90
20803;DHT22;10562;-33.856;151.182;2023-05-07T00:58:25;11.90;99.90
20803;DHT22;10562;-33.856;151.182;2023-05-07T01:00:56;11.90;99.90
20803;DHT22;10562;-33.856;151.182;2023-05-07T01:03:28;11.80;99.90
20803;DHT22;10562;-33.856;151.182;2023-05-07T01:06:01;11.70;99.90
20803;DHT22;10562;-33.856;151.182;2023-05-07T01:08:32;11.80;99.90
20803;DHT22;10562;-33.856;151.182;2023-05-07T01:11:04;11.80;99.90
20803;DHT22;10562;-33.856;151.182;2023-05-07T01:13:38;11.90;99.90
20803;DHT22;10562;-33.856;151.182;2023-05-07T01:16:10;12.00;99.90
20803;DHT22;10562;-33.856;151.182;2023-05-07T01:18:41;12.10;99.90
20803;DHT22;10562;-33.856;151.182;2023-05-07T01:21:12;12.10;99.90
20803;DHT22;10562;-33.856;151.182;2023-05-07T01:23:46;12.10;99.90
20803;DHT22;10562;-33.856;151.182;2023-05-07T01:26:17;12.10;99.90
20803;DHT22;10562;-33.856;151.182;2023-05-07T01:28:49;12.10;99.90
20803;DHT22;10562;-33.856;151.182;2023-05-07T01:31:21;12.30;99.90
20803;DHT22;10562;-33.856;151.182;2023-05-07T01:33:53;12.20;99.90
20803;DHT22;10562;-33.856;151.182;2023-05-07T01:36:26;11.90;99.90
20803;DHT22;10562;-33.856;151.182;2023-05-07T01:39:00;11.90;99.90
20803;DHT22;10562;-33.856;151.182;2023-05-07T01:41:32;12.00;99.90
20803;DHT22;10562;-33.856;151.182;2023-05-07T01:44:04;12.10;99.90
20803;DHT22;10562;-33.856;151.182;2023-05-07T01:46:37;12.10;99.90
20803;DHT22;10562;-33.856;151.182;2023-05-07T01:49:08;12.40;99.90
20803;DHT22;10562;-33.856;151.182;2023-05-07T01:51:40;12.80;99.90
20803;DHT22;10562;-33.856;151.182;2023-05-07T01:54:13;13.20;99.90
20803;DHT22;10562;-33.856;151.182;2023-05-07T01:56:44;13.70;99.90
20803;DHT22;10562;-33.856;151.182;2023-05-07T01:59:15;14.20;99.90
20803;DHT22;10562;-33.856;151.182;2023-05-07T02:01:46;14.20;99.90
20803;DHT22;10562;-33.856;151.182;2023-05-07T02:04:17;14.20;99.90
20803;DHT22;10562;-33.856;151.182;2023-05-07T02:06:48;14.00;99.90
20803;DHT22;10562;-33.856;151.182;2023-05-07T02:09:20;14.10;99.90
20803;DHT22;10562;-33.856;151.182;2023-05-07T02:11:51;14.10;99.90
20803;DHT22;10562;-33.856;151.182;2023-05-07T02:14:22;14.20;99.90
20803;DHT22;10562;-33.856;151.182;2023-05-07T02:16:53;14.60;99.90
20803;DHT22;10562;-33.856;151.182;2023-05-07T02:19:24;15.10;99.90
20803;DHT22;10562;-33.856;151.182;2023-05-07T02:21:55;15.30;99.90
20803;DHT22;10562;-33.856;151.182;2023-05-07T02:24:27;15.50;99.90
20803;DHT22;10562;-33.856;151.182;2023-05-07T02:26:58;15.50;99.90
20803;DHT22;10562;-33.856;151.182;2023-05-07T02:29:30;15.80;99.90
20803;DHT22;10562;-33.856;151.182;2023-05-07T02:32:01;16.00;99.90
20803;DHT22;10562;-33.856;151.182;2023-05-07T02:34:32;16.10;99.90
20803;DHT22;10562;-33.856;151.182;2023-05-07T02:37:03;16.00;99.90
20803;DHT22;10562;-33.856;151.182;2023-05-07T02:39:35;16.20;99.90
20803;DHT22;10562;-33.856;151.182;2023-05-07T02:42:06;16.40;99.90
20803;DHT22;10562;-33.856;151.182;2023-05-07T02:44:37;16.20;99.90
20803;DHT22;10562;-33.856;151.182;2023-05-07T02:47:07;16.30;99.90
20803;DHT22;10562;-33.856;151.182;2023-05-07T02:49:40;16.30;99.90
20803;DHT22;10562;-33.856;151.182;2023-05-07T02:52:11;16.20;99.90
20803;DHT22;10562;-33.856;151.182;2023-05-07T02:54:44;16.30;99.90
20803;DHT22;10562;-33.856;151.182;2023-05-07T02:57:15;16.20;99.90
20803;DHT22;10562;-33.856;151.182;2023-05-07T02:59:45;16.00;99.90
20803;DHT22;10562;-33.856;151.182;2023-05-07T03:02:16;15.80;99.90
20803;DHT22;10562;-33.856;151.182;2023-05-07T03:04:47;15.60;99.90
20803;DHT22;10562;-33.856;151.182;2023-05-07T03:07:17;14.60;99.90
20803;DHT22;10562;-33.856;151.182;2023-05-07T03:09:50;13.40;99.90
20803;DHT22;10562;-33.856;151.182;2023-05-07T03:12:21;12.70;99.90
20803;DHT22;10562;-33.856;151.182;2023-05-07T03:14:52;11.50;99.90
20803;DHT22;10562;-33.856;151.182;2023-05-07T03:17:22;11.20;99.90
20803;DHT22;10562;-33.856;151.182;2023-05-07T03:19:53;11.00;99.90
20803;DHT22;10562;-33.856;151.182;2023-05-07T03:22:24;10.70;99.90
20803;DHT22;10562;-33.856;151.182;2023-05-07T03:24:57;10.80;99.90
20803;DHT22;10562;-33.856;151.182;2023-05-07T03:27:27;10.90;99.90
20803;DHT22;10562;-33.856;151.182;2023-05-07T03:29:58;11.30;99.90
20803;DHT22;10562;-33.856;151.182;2023-05-07T03:32:29;11.90;99.90
20803;DHT22;10562;-33.856;151.182;2023-05-07T03:35:00;12.40;99.90
20803;DHT22;10562;-33.856;151.182;2023-05-07T03:37:32;12.90;99.90
20803;DHT22;10562;-33.856;151.182;2023-05-07T03:40:06;13.50;99.90
20803;DHT22;10562;-33.856;151.182;2023-05-07T03:42:37;13.90;99.90
20803;DHT22;10562;-33.856;151.182;2023-05-07T03:45:09;14.20;99.90
20803;DHT22;10562;-33.856;151.182;2023-05-07T03:47:40;14.40;99.90
20803;DHT22;10562;-33.856;151.182;2023-05-07T03:50:11;14.60;99.90
20803;DHT22;10562;-33.856;151.182;2023-05-07T03:52:41;14.50;99.90
20803;DHT22;10562;-33.856;151.182;2023-05-07T03:55:14;14.50;99.90
20803;DHT22;10562;-33.856;151.182;2023-05-07T03:57:47;14.60;99.90
20803;DHT22;10562;-33.856;151.182;2023-05-07T04:00:17;14.60;99.90
20803;DHT22;10562;-33.856;151.182;2023-05-07T04:02:49;14.90;99.90
20803;DHT22;10562;-33.856;151.182;2023-05-07T04:05:19;15.00;99.90
20803;DHT22;10562;-33.856;151.182;2023-05-07T04:07:55;15.20;99.90
20803;DHT22;10562;-33.856;151.182;2023-05-07T04:10:29;15.20;99.90
20803;DHT22;10562;-33.856;151.182;2023-05-07T04:13:00;15.40;99.90
20803;DHT22;10562;-33.856;151.182;2023-05-07T04:15:34;15.60;99.90
20803;DHT22;10562;-33.856;151.182;2023-05-07T04:18:05;15.70;99.90
20803;DHT22;10562;-33.856;151.182;2023-05-07T04:20:36;15.90;99.90
20803;DHT22;10562;-33.856;151.182;2023-05-07T04:23:07;16.00;99.90
20803;DHT22;10562;-33.856;151.182;2023-05-07T04:25:40;16.10;99.90
20803;DHT22;10562;-33.856;151.182;2023-05-07T04:28:10;16.20;99.90
20803;DHT22;10562;-33.856;151.182;2023-05-07T04:30:44;16.00;99.90
20803;DHT22;10562;-33.856;151.182;2023-05-07T04:33:16;16.00;99.90
20803;DHT22;10562;-33.856;151.182;2023-05-07T04:35:46;16.10;99.90
20803;DHT22;10562;-33.856;151.182;2023-05-07T04:38:17;16.00;99.90
20803;DHT22;10562;-33.856;151.182;2023-05-07T04:40:50;16.10;99.90
20803;DHT22;10562;-33.856;151.182;2023-05-07T04:43:20;16.20;99.90
20803;DHT22;10562;-33.856;151.182;2023-05-07T04:45:52;16.20;99.90
20803;DHT22;10562;-33.856;151.182;2023-05-07T04:48:22;16.20;99.90
20803;DHT22;10562;-33.856;151.182;2023-05-07T04:50:56;16.10;99.90
20803;DHT22;10562;-33.856;151.182;2023-05-07T04:53:27;16.10;99.90
20803;DHT22;10562;-33.856;151.182;2023-05-07T04:56:00;16.00;99.90
20803;DHT22;10562;-33.856;151.182;2023-05-07T04:58:31;15.90;99.90
20803;DHT22;10562;-33.856;151.182;2023-05-07T05:01:05;16.00;99.90
20803;DHT22;10562;-33.856;151.182;2023-05-07T05:03:35;16.00;99.90
20803;DHT22;10562;-33.856;151.182;2023-05-07T05:06:07;15.90;99.90
20803;DHT22;10562;-33.856;151.182;2023-05-07T05:08:37;15.90;99.90
20803;DHT22;10562;-33.856;151.182;2023-05-07T05:11:11;15.90;99.90
20803;DHT22;10562;-33.856;151.182;2023-05-07T05:13:41;15.80;99.90
20803;DHT22;10562;-33.856;151.182;2023-05-07T05:16:12;15.60;99.90
20803;DHT22;10562;-33.856;151.182;2023-05-07T05:18:43;15.60;99.90
20803;DHT22;10562;-33.856;151.182;2023-05-07T05:21:14;15.60;99.90
20803;DHT22;10562;-33.856;151.182;2023-05-07T05:23:44;15.60;99.90
20803;DHT22;10562;-33.856;151.182;2023-05-07T05:26:17;15.50;99.90
20803;DHT22;10562;-33.856;151.182;2023-05-07T05:28:49;15.60;99.90
20803;DHT22;10562;-33.856;151.182;2023-05-07T05:31:19;15.80;99.90
20803;DHT22;10562;-33.856;151.182;2023-05-07T05:33:50;16.00;99.90
20803;DHT22;10562;-33.856;151.182;2023-05-07T05:36:21;16.10;99.90
20803;DHT22;10562;-33.856;151.182;2023-05-07T05:38:51;16.10;99.90
20803;DHT22;10562;-33.856;151.182;2023-05-07T05:41:24;16.10;99.90
20803;DHT22;10562;-33.856;151.182;2023-05-07T05:43:55;16.00;99.90
20803;DHT22;10562;-33.856;151.182;2023-05-07T05:46:26;15.80;99.90
20803;DHT22;10562;-33.856;151.182;2023-05-07T05:48:56;15.70;99.90
20803;DHT22;10562;-33.856;151.182;2023-05-07T05:51:27;15.60;99.90
20803;DHT22;10562;-33.856;151.182;2023-05-07T05:53:58;15.60;99.90
20803;DHT22;10562;-33.856;151.182;2023-05-07T05:56:31;15.50;99.90
20803;DHT22;10562;-33.856;151.182;2023-05-07T05:59:01;15.50;99.90
20803;DHT22;10562;-33.856;151.182;2023-05-07T06:01:33;15.40;99.90
20803;DHT22;10562;-33.856;151.182;2023-05-07T06:04:04;15.20;99.90
20803;DHT22;10562;-33.856;151.182;2023-05-07T06:06:35;15.10;99.90
20803;DHT22;10562;-33.856;151.182;2023-05-07T06:09:05;15.00;99.90
20803;DHT22;10562;-33.856;151.182;2023-05-07T06:11:39;14.90;99.90
20803;DHT22;10562;-33.856;151.182;2023-05-07T06:14:10;14.90;99.90
20803;DHT22;10562;-33.856;151.182;2023-05-07T06:16:41;14.70;99.90
20803;DHT22;10562;-33.856;151.182;2023-05-07T06:19:11;14.80;99.90
20803;DHT22;10562;-33.856;151.182;2023-05-07T06:21:42;14.60;99.90
20803;DHT22;10562;-33.856;151.182;2023-05-07T06:24:13;14.50;99.90
20803;DHT22;10562;-33.856;151.182;2023-05-07T06:26:45;14.30;99.90
20803;DHT22;10562;-33.856;151.182;2023-05-07T06:29:16;14.30;99.90
20803;DHT22;10562;-33.856;151.182;2023-05-07T06:31:47;14.20;99.90
20803;DHT22;10562;-33.856;151.182;2023-05-07T06:34:18;14.10;99.90
20803;DHT22;10562;-33.856;151.182;2023-05-07T06:36:48;14.00;99.90
20803;DHT22;10562;-33.856;151.182;2023-05-07T06:39:19;13.90;99.90
20803;DHT22;10562;-33.856;151.182;2023-05-07T06:41:52;13.80;99.90
20803;DHT22;10562;-33.856;151.182;2023-05-07T06:44:23;13.70;99.90
20803;DHT22;10562;-33.856;151.182;2023-05-07T06:46:53;13.50;99.90
20803;DHT22;10562;-33.856;151.182;2023-05-07T06:49:24;13.50;99.90
20803;DHT22;10562;-33.856;151.182;2023-05-07T06:51:55;13.40;99.90
20803;DHT22;10562;-33.856;151.182;2023-05-07T06:54:26;13.40;99.90
20803;DHT22;10562;-33.856;151.182;2023-05-07T06:56:58;13.40;99.90
20803;DHT22;10562;-33.856;151.182;2023-05-07T06:59:29;13.30;99.90
20803;DHT22;10562;-33.856;151.182;2023-05-07T07:02:00;13.20;99.90
20803;DHT22;10562;-33.856;151.182;2023-05-07T07:04:31;13.10;99.90
20803;DHT22;10562;-33.856;151.182;2023-05-07T07:07:02;13.00;99.90
20803;DHT22;10562;-33.856;151.182;2023-05-07T07:09:33;13.00;99.90
20803;DHT22;10562;-33.856;151.182;2023-05-07T07:12:06;13.10;99.90
20803;DHT22;10562;-33.856;151.182;2023-05-07T07:14:37;13.00;99.90
20803;DHT22;10562;-33.856;151.182;2023-05-07T07:17:08;12.90;99.90
20803;DHT22;10562;-33.856;151.182;2023-05-07T07:19:39;12.90;99.90
20803;DHT22;10562;-33.856;151.182;2023-05-07T07:22:09;12.70;99.90
20803;DHT22;10562;-33.856;151.182;2023-05-07T07:24:40;12.60;99.90
20803;DHT22;10562;-33.856;151.182;2023-05-07T07:27:13;12.50;99.90
20803;DHT22;10562;-33.856;151.182;2023-05-07T07:29:44;12.40;99.90
20803;DHT22;10562;-33.856;151.182;2023-05-07T07:32:14;12.40;99.90
20803;DHT22;10562;-33.856;151.182;2023-05-07T07:34:45;12.30;99.90
20803;DHT22;10562;-33.856;151.182;2023-05-07T07:37:16;12.20;99.90
20803;DHT22;10562;-33.856;151.182;2023-05-07T07:39:47;12.20;99.90
20803;DHT22;10562;-33.856;151.182;2023-05-07T07:42:19;12.10;99.90
20803;DHT22;10562;-33.856;151.182;2023-05-07T07:44:50;12.10;99.90
20803;DHT22;10562;-33.856;151.182;2023-05-07T07:47:21;12.00;99.90
20803;DHT22;10562;-33.856;151.182;2023-05-07T07:49:52;11.90;99.90
20803;DHT22;10562;-33.856;151.182;2023-05-07T07:52:22;11.90;99.90
20803;DHT22;10562;-33.856;151.182;2023-05-07T07:54:53;11.80;99.90
20803;DHT22;10562;-33.856;151.182;2023-05-07T07:57:26;11.80;99.90
20803;DHT22;10562;-33.856;151.182;2023-05-07T07:59:56;11.80;99.90
20803;DHT22;10562;-33.856;151.182;2023-05-07T08:02:27;11.70;99.90
20803;DHT22;10562;-33.856;151.182;2023-05-07T08:04:58;11.70;99.90
20803;DHT22;10562;-33.856;151.182;2023-05-07T08:07:29;11.70;99.90
20803;DHT22;10562;-33.856;151.182;2023-05-07T08:10:00;11.60;99.90
20803;DHT22;10562;-33.856;151.182;2023-05-07T08:12:33;11.50;99.90
20803;DHT22;10562;-33.856;151.182;2023-05-07T08:15:04;11.60;99.90
20803;DHT22;10562;-33.856;151.182;2023-05-07T08:17:35;11.70;99.90
20803;DHT22;10562;-33.856;151.182;2023-05-07T08:20:06;11.60;99.90
20803;DHT22;10562;-33.856;151.182;2023-05-07T08:22:37;11.60;99.90
20803;DHT22;10562;-33.856;151.182;2023-05-07T08:25:09;11.50;99.90
20803;DHT22;10562;-33.856;151.182;2023-05-07T08:27:41;11.40;99.90
20803;DHT22;10562;-33.856;151.182;2023-05-07T08:30:13;11.30;99.90
20803;DHT22;10562;-33.856;151.182;2023-05-07T08:32:44;11.20;99.90
20803;DHT22;10562;-33.856;151.182;2023-05-07T08:35:15;11.10;99.90
20803;DHT22;10562;-33.856;151.182;2023-05-07T08:37:45;11.10;99.90
20803;DHT22;10562;-33.856;151.182;2023-05-07T08:40:16;11.10;99.90
20803;DHT22;10562;-33.856;151.182;2023-05-07T08:42:52;10.90;99.90
20803;DHT22;10562;-33.856;151.182;2023-05-07T08:45:24;10.90;99.90
20803;DHT22;10562;-33.856;151.182;2023-05-07T08:47:58;10.90;99.90
20803;DHT22;10562;-33.856;151.182;2023-05-07T08:50:30;11.00;99.90
20803;DHT22;10562;-33.856;151.182;2023-05-07T08:53:00;11.00;99.90
20803;DHT22;10562;-33.856;151.182;2023-05-07T08:55:33;11.10;99.90
20803;DHT22;10562;-33.856;151.182;2023-05-07T08:58:06;11.10;99.90
20803;DHT22;10562;-33.856;151.182;2023-05-07T09:00:38;11.20;99.90
20803;DHT22;10562;-33.856;151.182;2023-05-07T09:03:10;11.20;99.90
20803;DHT22;10562;-33.856;151.182;2023-05-07T09:05:41;11.30;99.90
20803;DHT22;10562;-33.856;151.182;2023-05-07T09:08:16;11.40;99.90
20803;DHT22;10562;-33.856;151.182;2023-05-07T09:10:46;11.50;99.90
20803;DHT22;10562;-33.856;151.182;2023-05-07T09:13:20;11.40;99.90
20803;DHT22;10562;-33.856;151.182;2023-05-07T09:15:51;11.40;99.90
20803;DHT22;10562;-33.856;151.182;2023-05-07T09:18:22;11.40;99.90
20803;DHT22;10562;-33.856;151.182;2023-05-07T09:20:53;11.40;99.90
20803;DHT22;10562;-33.856;151.182;2023-05-07T09:23:25;11.40;99.90
20803;DHT22;10562;-33.856;151.182;2023-05-07T09:26:01;11.40;99.90
20803;DHT22;10562;-33.856;151.182;2023-05-07T09:28:34;11.50;99.90
20803;DHT22;10562;-33.856;151.182;2023-05-07T09:31:05;11.60;99.90
20803;DHT22;10562;-33.856;151.182;2023-05-07T09:33:36;11.70;99.90
20803;DHT22;10562;-33.856;151.182;2023-05-07T09:36:08;11.70;99.90
20803;DHT22;10562;-33.856;151.182;2023-05-07T09:38:39;11.70;99.90
20803;DHT22;10562;-33.856;151.182;2023-05-07T09:41:11;11.80;99.90
20803;DHT22;10562;-33.856;151.182;2023-05-07T09:43:44;11.80;99.90
20803;DHT22;10562;-33.856;151.182;2023-05-07T09:46:15;11.80;99.90
20803;DHT22;10562;-33.856;151.182;2023-05-07T09:48:49;11.80;99.90
20803;DHT22;10562;-33.856;151.182;2023-05-07T09:51:29;11.70;99.90
20803;DHT22;10562;-33.856;151.182;2023-05-07T09:54:00;11.70;99.90
20803;DHT22;10562;-33.856;151.182;2023-05-07T09:56:33;11.70;99.90
20803;DHT22;10562;-33.856;151.182;2023-05-07T09:59:08;11.60;99.90
20803;DHT22;10562;-33.856;151.182;2023-05-07T10:01:40;11.60;99.90
20803;DHT22;10562;-33.856;151.182;2023-05-07T10:04:11;11.60;99.90
20803;DHT22;10562;-33.856;151.182;2023-05-07T10:06:43;11.50;99.90
20803;DHT22;10562;-33.856;151.182;2023-05-07T10:09:15;11.50;99.90
20803;DHT22;10562;-33.856;151.182;2023-05-07T10:11:47;11.50;99.90
20803;DHT22;10562;-33.856;151.182;2023-05-07T10:14:21;11.50;99.90
20803;DHT22;10562;-33.856;151.182;2023-05-07T10:16:54;11.50;99.90
20803;DHT22;10562;-33.856;151.182;2023-05-07T10:19:25;11.50;99.90
20803;DHT22;10562;-33.856;151.182;2023-05-07T10:21:56;11.50;99.90
20803;DHT22;10562;-33.856;151.182;2023-05-07T10:24:33;11.70;99.90
20803;DHT22;10562;-33.856;151.182;2023-05-07T10:27:05;11.70;99.90
20803;DHT22;10562;-33.856;151.182;2023-05-07T10:29:49;11.70;99.90
20803;DHT22;10562;-33.856;151.182;2023-05-07T10:32:35;11.80;99.90
20803;DHT22;10562;-33.856;151.182;2023-05-07T10:35:11;11.60;99.90
20803;DHT22;10562;-33.856;151.182;2023-05-07T10:37:45;11.40;99.90
20803;DHT22;10562;-33.856;151.182;2023-05-07T10:40:17;11.40;99.90
20803;DHT22;10562;-33.856;151.182;2023-05-07T10:42:58;11.30;99.90
20803;DHT22;10562;-33.856;151.182;2023-05-07T10:45:31;11.30;99.90
20803;DHT22;10562;-33.856;151.182;2023-05-07T10:48:09;11.20;99.90
20803;DHT22;10562;-33.856;151.182;2023-05-07T10:50:41;11.20;99.90
20803;DHT22;10562;-33.856;151.182;2023-05-07T10:53:26;11.20;99.90
20803;DHT22;10562;-33.856;151.182;2023-05-07T10:56:24;11.20;99.90
20803;DHT22;10562;-33.856;151.182;2023-05-07T10:58:56;11.10;99.90
20803;DHT22;10562;-33.856;151.182;2023-05-07T11:01:55;11.20;99.90
20803;DHT22;10562;-33.856;151.182;2023-05-07T11:04:27;11.20;99.90
20803;DHT22;10562;-33.856;151.182;2023-05-07T11:07:26;11.10;99.90
20803;DHT22;10562;-33.856;151.182;2023-05-07T11:10:05;11.00;99.90
20803;DHT22;10562;-33.856;151.182;2023-05-07T11:13:03;11.10;99.90
20803;DHT22;10562;-33.856;151.182;2023-05-07T11:15:41;11.00;99.90
20803;DHT22;10562;-33.856;151.182;2023-05-07T11:18:16;11.00;99.90
20803;DHT22;10562;-33.856;151.182;2023-05-07T11:20:54;11.00;99.90
20803;DHT22;10562;-33.856;151.182;2023-05-07T11:26:47;11.00;99.90
20803;DHT22;10562;-33.856;151.182;2023-05-07T11:29:19;10.80;99.90
20803;DHT22;10562;-33.856;151.182;2023-05-07T11:31:51;10.60;99.90
20803;DHT22;10562;-33.856;151.182;2023-05-07T11:34:27;10.30;99.90
20803;DHT22;10562;-33.856;151.182;2023-05-07T11:36:59;10.00;99.90
20803;DHT22;10562;-33.856;151.182;2023-05-07T11:39:32;9.90;99.90
20803;DHT22;10562;-33.856;151.182;2023-05-07T11:42:03;9.80;99.90
20803;DHT22;10562;-33.856;151.182;2023-05-07T11:44:43;9.70;99.90
20803;DHT22;10562;-33.856;151.182;2023-05-07T11:47:19;9.70;99.90
20803;DHT22;10562;-33.856;151.182;2023-05-07T11:49:53;9.50;99.90
20803;DHT22;10562;-33.856;151.182;2023-05-07T11:52:24;9.40;99.90
20803;DHT22;10562;-33.856;151.182;2023-05-07T11:54:56;9.20;99.90
20803;DHT22;10562;-33.856;151.182;2023-05-07T11:57:27;9.20;99.90
20803;DHT22;10562;-33.856;151.182;2023-05-07T11:59:59;9.20;99.90
20803;DHT22;10562;-33.856;151.182;2023-05-07T12:02:29;9.00;99.90
20803;DHT22;10562;-33.856;151.182;2023-05-07T12:05:02;9.00;99.90
20803;DHT22;10562;-33.856;151.182;2023-05-07T12:07:34;8.90;99.90
20803;DHT22;10562;-33.856;151.182;2023-05-07T12:10:08;8.90;99.90
20803;DHT22;10562;-33.856;151.182;2023-05-07T12:12:41;8.80;99.90
20803;DHT22;10562;-33.856;151.182;2023-05-07T12:15:17;8.70;99.90
20803;DHT22;10562;-33.856;151.182;2023-05-07T12:17:48;8.70;99.90
20803;DHT22;10562;-33.856;151.182;2023-05-07T12:20:22;8.70;99.90
20803;DHT22;10562;-33.856;151.182;2023-05-07T12:22:53;8.60;99.90
20803;DHT22;10562;-33.856;151.182;2023-05-07T12:25:24;8.50;99.90
20803;DHT22;10562;-33.856;151.182;2023-05-07T12:27:55;8.50;99.90
20803;DHT22;10562;-33.856;151.182;2023-05-07T12:30:26;8.50;99.90
20803;DHT22;10562;-33.856;151.182;2023-05-07T12:32:57;8.40;99.90
20803;DHT22;10562;-33.856;151.182;2023-05-07T12:35:30;8.40;99.90
20803;DHT22;10562;-33.856;151.182;2023-05-07T12:38:01;8.30;99.90
20803;DHT22;10562;-33.856;151.182;2023-05-07T12:40:38;8.30;99.90
20803;DHT22;10562;-33.856;151.182;2023-05-07T12:43:15;8.20;99.90
20803;DHT22;10562;-33.856;151.182;2023-05-07T12:45:48;8.30;99.90
20803;DHT22;10562;-33.856;151.182;2023-05-07T12:48:20;8.10;99.90
20803;DHT22;10562;-33.856;151.182;2023-05-07T12:50:54;8.10;99.90
20803;DHT22;10562;-33.856;151.182;2023-05-07T12:53:26;8.00;99.90
20803;DHT22;10562;-33.856;151.182;2023-05-07T12:56:00;7.90;99.90
20803;DHT22;10562;-33.856;151.182;2023-05-07T12:58:33;8.00;99.90
20803;DHT22;10562;-33.856;151.182;2023-05-07T13:01:06;8.00;99.90
20803;DHT22;10562;-33.856;151.182;2023-05-07T13:03:39;8.00;99.90
20803;DHT22;10562;-33.856;151.182;2023-05-07T13:06:12;8.10;99.90
20803;DHT22;10562;-33.856;151.182;2023-05-07T13:08:43;8.10;99.90
20803;DHT22;10562;-33.856;151.182;2023-05-07T13:11:14;8.00;99.90
20803;DHT22;10562;-33.856;151.182;2023-05-07T13:13:44;8.10;99.90
20803;DHT22;10562;-33.856;151.182;2023-05-07T13:16:15;8.10;99.90
20803;DHT22;10562;-33.856;151.182;2023-05-07T13:18:46;8.10;99.90
20803;DHT22;10562;-33.856;151.182;2023-05-07T13:21:19;8.10;99.90
20803;DHT22;10562;-33.856;151.182;2023-05-07T13:23:49;8.10;99.90
20803;DHT22;10562;-33.856;151.182;2023-05-07T13:26:20;8.10;99.90
20803;DHT22;10562;-33.856;151.182;2023-05-07T13:28:51;8.30;99.90
20803;DHT22;10562;-33.856;151.182;2023-05-07T13:31:22;8.30;99.90
20803;DHT22;10562;-33.856;151.182;2023-05-07T13:33:52;8.30;99.90
20803;DHT22;10562;-33.856;151.182;2023-05-07T13:36:25;8.30;99.90
20803;DHT22;10562;-33.856;151.182;2023-05-07T13:38:56;8.40;99.90
20803;DHT22;10562;-33.856;151.182;2023-05-07T13:41:28;8.40;99.90
20803;DHT22;10562;-33.856;151.182;2023-05-07T13:43:59;8.40;99.90
20803;DHT22;10562;-33.856;151.182;2023-05-07T13:46:29;8.50;99.90
20803;DHT22;10562;-33.856;151.182;2023-05-07T13:49:00;8.50;99.90
20803;DHT22;10562;-33.856;151.182;2023-05-07T13:51:33;8.50;99.90
20803;DHT22;10562;-33.856;151.182;2023-05-07T13:54:04;8.60;99.90
20803;DHT22;10562;-33.856;151.182;2023-05-07T13:56:35;8.60;99.90
20803;DHT22;10562;-33.856;151.182;2023-05-07T13:59:06;8.60;99.90
20803;DHT22;10562;-33.856;151.182;2023-05-07T14:01:37;8.70;99.90
20803;DHT22;10562;-33.856;151.182;2023-05-07T14:04:07;8.70;99.90
20803;DHT22;10562;-33.856;151.182;2023-05-07T14:06:40;8.70;99.90
20803;DHT22;10562;-33.856;151.182;2023-05-07T14:09:11;8.80;99.90
20803;DHT22;10562;-33.856;151.182;2023-05-07T14:11:42;8.90;99.90
20803;DHT22;10562;-33.856;151.182;2023-05-07T14:14:15;8.80;99.90
20803;DHT22;10562;-33.856;151.182;2023-05-07T14:16:46;8.80;99.90
20803;DHT22;10562;-33.856;151.182;2023-05-07T14:19:16;8.80;99.90
20803;DHT22;10562;-33.856;151.182;2023-05-07T14:21:49;8.80;99.90
20803;DHT22;10562;-33.856;151.182;2023-05-07T14:24:20;8.80;99.90
20803;DHT22;10562;-33.856;151.182;2023-05-07T14:26:51;8.80;99.90
20803;DHT22;10562;-33.856;151.182;2023-05-07T14:29:21;8.80;99.90
20803;DHT22;10562;-33.856;151.182;2023-05-07T14:31:52;8.90;99.90
20803;DHT22;10562;-33.856;151.182;2023-05-07T14:34:23;9.00;99.90
20803;DHT22;10562;-33.856;151.182;2023-05-07T14:36:56;9.00;99.90
20803;DHT22;10562;-33.856;151.182;2023-05-07T14:39:26;9.10;99.90
20803;DHT22;10562;-33.856;151.182;2023-05-07T14:41:58;9.10;99.90
20803;DHT22;10562;-33.856;151.182;2023-05-07T14:44:29;9.20;99.90
20803;DHT22;10562;-33.856;151.182;2023-05-07T14:47:00;9.20;99.90
20803;DHT22;10562;-33.856;151.182;2023-05-07T14:49:31;9.30;99.90
20803;DHT22;10562;-33.856;151.182;2023-05-07T14:52:04;9.30;99.90
20803;DHT22;10562;-33.856;151.182;2023-05-07T14:54:36;9.30;99.90
20803;DHT22;10562;-33.856;151.182;2023-05-07T14:57:08;9.30;99.90
20803;DHT22;10562;-33.856;151.182;2023-05-07T14:59:41;9.30;99.90
20803;DHT22;10562;-33.856;151.182;2023-05-07T15:02:12;9.40;99.90
20803;DHT22;10562;-33.856;151.182;2023-05-07T15:04:43;9.30;99.90
20803;DHT22;10562;-33.856;151.182;2023-05-07T15:07:17;9.40;99.90
20803;DHT22;10562;-33.856;151.182;2023-05-07T15:09:48;9.40;99.90
20803;DHT22;10562;-33.856;151.182;2023-05-07T15:12:18;9.30;99.90
20803;DHT22;10562;-33.856;151.182;2023-05-07T15:14:49;9.40;99.90
20803;DHT22;10562;-33.856;151.182;2023-05-07T15:17:20;9.50;99.90
20803;DHT22;10562;-33.856;151.182;2023-05-07T15:19:51;9.60;99.90
20803;DHT22;10562;-33.856;151.182;2023-05-07T15:22:23;9.70;99.90